sensor_id;sensor_type;location;lat;lon;timestamp;P1;durP1;ratioP1;P2;durP2;ratioP2
10825;SDS011;5466;55.898;14.094;2024-02-15T00:00:48;224.68;;;18.67;;
10825;SDS011;5466;55.898;14.094;2024-02-15T00:02:48;182.63;;;18.75;;
10825;SDS011;5466;55.898;14.094;2024-02-15T00:04:50;210.73;;;20.60;;
10825;SDS011;5466;55.898;14.094;2024-02-15T00:06:51;170.20;;;18.80;;
10825;SDS011;5466;55.898;14.094;2024-02-15T00:08:52;157.93;;;17.60;;
10825;SDS011;5466;55.898;14.094;2024-02-15T00:10:52;214.98;;;21.20;;
10825;SDS011;5466;55.898;14.094;2024-02-15T00:12:53;252.85;;;21.45;;
10825;SDS011;5466;55.898;14.094;2024-02-15T00:14:54;226.20;;;19.35;;
10825;SDS011;5466;55.898;14.094;2024-02-15T00:16:58;191.70;;;19.70;;
10825;SDS011;5466;55.898;14.094;2024-02-15T00:18:59;214.02;;;20.33;;
10825;SDS011;5466;55.898;14.094;2024-02-15T00:20:59;257.48;;;21.27;;
10825;SDS011;5466;55.898;14.094;2024-02-15T00:23:00;160.38;;;17.27;;
10825;SDS011;5466;55.898;14.094;2024-02-15T00:25:01;219.07;;;23.08;;
10825;SDS011;5466;55.898;14.094;2024-02-15T00:27:01;238.45;;;20.92;;
10825;SDS011;5466;55.898;14.094;2024-02-15T00:29:02;257.83;;;22.70;;
10825;SDS011;5466;55.898;14.094;2024-02-15T00:31:03;214.90;;;21.33;;
10825;SDS011;5466;55.898;14.094;2024-02-15T00:33:04;208.70;;;17.75;;
10825;SDS011;5466;55.898;14.094;2024-02-15T00:35:05;221.65;;;20.58;;
10825;SDS011;5466;55.898;14.094;2024-02-15T00:37:07;179.02;;;20.02;;
10825;SDS011;5466;55.898;14.094;2024-02-15T00:39:08;204.18;;;17.02;;
10825;SDS011;5466;55.898;14.094;2024-02-15T00:41:09;196.05;;;18.10;;
10825;SDS011;5466;55.898;14.094;2024-02-15T00:43:10;155.23;;;16.75;;
10825;SDS011;5466;55.898;14.094;2024-02-15T00:45:11;169.98;;;16.77;;
10825;SDS011;5466;55.898;14.094;2024-02-15T00:47:12;133.25;;;16.63;;
10825;SDS011;5466;55.898;14.094;2024-02-15T00:49:13;259.63;;;18.88;;
10825;SDS011;5466;55.898;14.094;2024-02-15T00:51:13;204.27;;;19.17;;
10825;SDS011;5466;55.898;14.094;2024-02-15T00:53:14;242.57;;;19.90;;
10825;SDS011;5466;55.898;14.094;2024-02-15T00:55:16;222.98;;;18.98;;
10825;SDS011;5466;55.898;14.094;2024-02-15T00:57:17;278.20;;;20.65;;
10825;SDS011;5466;55.898;14.094;2024-02-15T00:59:18;231.57;;;21.05;;
10825;SDS011;5466;55.898;14.094;2024-02-15T01:01:18;271.45;;;19.83;;
10825;SDS011;5466;55.898;14.094;2024-02-15T01:03:19;281.75;;;20.60;;
10825;SDS011;5466;55.898;14.094;2024-02-15T01:05:20;253.80;;;22.05;;
10825;SDS011;5466;55.898;14.094;2024-02-15T01:07:21;240.13;;;22.50;;
10825;SDS011;5466;55.898;14.094;2024-02-15T01:09:26;224.52;;;23.27;;
10825;SDS011;5466;55.898;14.094;2024-02-15T01:11:27;273.35;;;21.90;;
10825;SDS011;5466;55.898;14.094;2024-02-15T01:13:28;262.55;;;18.98;;
10825;SDS011;5466;55.898;14.094;2024-02-15T01:15:29;188.57;;;17.85;;
10825;SDS011;5466;55.898;14.094;2024-02-15T01:17:30;222.32;;;19.52;;
10825;SDS011;5466;55.898;14.094;2024-02-15T01:19:30;281.70;;;20.70;;
10825;SDS011;5466;55.898;14.094;2024-02-15T01:21:31;268.17;;;22.02;;
10825;SDS011;5466;55.898;14.094;2024-02-15T01:23:33;228.55;;;21.65;;
10825;SDS011;5466;55.898;14.094;2024-02-15T01:25:36;254.73;;;19.77;;
10825;SDS011;5466;55.898;14.094;2024-02-15T01:27:38;297.35;;;22.15;;
10825;SDS011;5466;55.898;14.094;2024-02-15T01:29:39;211.05;;;19.73;;
10825;SDS011;5466;55.898;14.094;2024-02-15T01:31:39;240.43;;;22.55;;
10825;SDS011;5466;55.898;14.094;2024-02-15T01:33:40;225.85;;;20.75;;
10825;SDS011;5466;55.898;14.094;2024-02-15T01:35:41;208.75;;;19.35;;
10825;SDS011;5466;55.898;14.094;2024-02-15T01:37:41;233.90;;;21.15;;
10825;SDS011;5466;55.898;14.094;2024-02-15T01:39:42;209.80;;;18.55;;
10825;SDS011;5466;55.898;14.094;2024-02-15T01:41:46;226.75;;;21.67;;
10825;SDS011;5466;55.898;14.094;2024-02-15T01:43:48;216.23;;;19.67;;
10825;SDS011;5466;55.898;14.094;2024-02-15T01:45:50;272.55;;;20.38;;
10825;SDS011;5466;55.898;14.094;2024-02-15T01:47:51;213.85;;;19.20;;
10825;SDS011;5466;55.898;14.094;2024-02-15T01:49:53;238.27;;;20.23;;
10825;SDS011;5466;55.898;14.094;2024-02-15T01:51:54;270.80;;;21.35;;
10825;SDS011;5466;55.898;14.094;2024-02-15T01:53:57;256.35;;;22.02;;
10825;SDS011;5466;55.898;14.094;2024-02-15T01:55:57;231.35;;;20.52;;
10825;SDS011;5466;55.898;14.094;2024-02-15T01:57:59;289.83;;;21.13;;
10825;SDS011;5466;55.898;14.094;2024-02-15T02:00:01;262.30;;;21.40;;
10825;SDS011;5466;55.898;14.094;2024-02-15T02:02:02;308.08;;;22.08;;
10825;SDS011;5466;55.898;14.094;2024-02-15T02:04:11;251.82;;;19.23;;
10825;SDS011;5466;55.898;14.094;2024-02-15T02:06:12;256.15;;;21.55;;
10825;SDS011;5466;55.898;14.094;2024-02-15T02:08:14;266.63;;;19.95;;
10825;SDS011;5466;55.898;14.094;2024-02-15T02:10:15;271.65;;;20.95;;
10825;SDS011;5466;55.898;14.094;2024-02-15T02:12:15;293.13;;;21.90;;
10825;SDS011;5466;55.898;14.094;2024-02-15T02:14:16;201.20;;;19.77;;
10825;SDS011;5466;55.898;14.094;2024-02-15T02:16:30;221.38;;;21.15;;
10825;SDS011;5466;55.898;14.094;2024-02-15T02:18:32;254.63;;;18.30;;
10825;SDS011;5466;55.898;14.094;2024-02-15T02:20:32;246.75;;;18.63;;
10825;SDS011;5466;55.898;14.094;2024-02-15T02:22:35;267.63;;;20.63;;
10825;SDS011;5466;55.898;14.094;2024-02-15T02:24:40;193.35;;;17.35;;
10825;SDS011;5466;55.898;14.094;2024-02-15T02:27:04;153.00;;;15.32;;
10825;SDS011;5466;55.898;14.094;2024-02-15T02:29:07;233.75;;;20.75;;
10825;SDS011;5466;55.898;14.094;2024-02-15T02:31:08;181.07;;;17.42;;
10825;SDS011;5466;55.898;14.094;2024-02-15T02:33:12;236.70;;;17.23;;
10825;SDS011;5466;55.898;14.094;2024-02-15T02:35:22;246.63;;;18.48;;
10825;SDS011;5466;55.898;14.094;2024-02-15T02:37:23;233.98;;;18.95;;
10825;SDS011;5466;55.898;14.094;2024-02-15T02:39:24;262.55;;;21.50;;
10825;SDS011;5466;55.898;14.094;2024-02-15T02:41:27;220.00;;;16.65;;
10825;SDS011;5466;55.898;14.094;2024-02-15T02:43:28;220.18;;;17.15;;
10825;SDS011;5466;55.898;14.094;2024-02-15T02:45:28;143.45;;;14.95;;
10825;SDS011;5466;55.898;14.094;2024-02-15T02:47:29;199.95;;;16.23;;
10825;SDS011;5466;55.898;14.094;2024-02-15T02:49:30;221.43;;;17.35;;
10825;SDS011;5466;55.898;14.094;2024-02-15T02:51:30;244.13;;;18.42;;
10825;SDS011;5466;55.898;14.094;2024-02-15T02:53:31;273.65;;;18.30;;
10825;SDS011;5466;55.898;14.094;2024-02-15T02:55:32;189.73;;;16.65;;
10825;SDS011;5466;55.898;14.094;2024-02-15T02:57:32;190.73;;;17.02;;
10825;SDS011;5466;55.898;14.094;2024-02-15T02:59:33;198.93;;;16.10;;
10825;SDS011;5466;55.898;14.094;2024-02-15T03:01:35;244.07;;;18.65;;
10825;SDS011;5466;55.898;14.094;2024-02-15T03:03:36;231.85;;;18.42;;
10825;SDS011;5466;55.898;14.094;2024-02-15T03:05:38;223.93;;;17.67;;
10825;SDS011;5466;55.898;14.094;2024-02-15T03:07:40;229.85;;;18.77;;
10825;SDS011;5466;55.898;14.094;2024-02-15T03:09:41;188.55;;;17.42;;
10825;SDS011;5466;55.898;14.094;2024-02-15T03:11:41;230.98;;;20.73;;
10825;SDS011;5466;55.898;14.094;2024-02-15T03:13:42;226.20;;;17.52;;
10825;SDS011;5466;55.898;14.094;2024-02-15T03:15:44;254.77;;;17.75;;
10825;SDS011;5466;55.898;14.094;2024-02-15T03:17:47;220.85;;;17.95;;
10825;SDS011;5466;55.898;14.094;2024-02-15T03:19:48;258.40;;;19.33;;
10825;SDS011;5466;55.898;14.094;2024-02-15T03:21:49;161.52;;;16.45;;
10825;SDS011;5466;55.898;14.094;2024-02-15T03:23:50;204.68;;;17.77;;
10825;SDS011;5466;55.898;14.094;2024-02-15T03:25:52;240.82;;;18.77;;
10825;SDS011;5466;55.898;14.094;2024-02-15T03:27:55;241.27;;;22.08;;
10825;SDS011;5466;55.898;14.094;2024-02-15T03:29:57;272.40;;;18.58;;
10825;SDS011;5466;55.898;14.094;2024-02-15T03:31:59;293.55;;;23.75;;
10825;SDS011;5466;55.898;14.094;2024-02-15T03:34:00;188.68;;;17.98;;
10825;SDS011;5466;55.898;14.094;2024-02-15T03:36:01;233.75;;;19.90;;
10825;SDS011;5466;55.898;14.094;2024-02-15T03:38:02;257.02;;;20.70;;
10825;SDS011;5466;55.898;14.094;2024-02-15T03:40:03;146.38;;;17.30;;
10825;SDS011;5466;55.898;14.094;2024-02-15T03:42:04;231.70;;;18.85;;
10825;SDS011;5466;55.898;14.094;2024-02-15T03:44:05;173.93;;;21.73;;
10825;SDS011;5466;55.898;14.094;2024-02-15T03:46:06;196.82;;;17.63;;
10825;SDS011;5466;55.898;14.094;2024-02-15T03:48:08;205.55;;;18.30;;
10825;SDS011;5466;55.898;14.094;2024-02-15T03:50:09;239.10;;;21.65;;
10825;SDS011;5466;55.898;14.094;2024-02-15T03:52:11;265.75;;;20.50;;
10825;SDS011;5466;55.898;14.094;2024-02-15T03:54:11;193.60;;;19.67;;
10825;SDS011;5466;55.898;14.094;2024-02-15T03:56:12;243.07;;;19.55;;
10825;SDS011;5466;55.898;14.094;2024-02-15T03:58:13;238.98;;;22.35;;
10825;SDS011;5466;55.898;14.094;2024-02-15T04:00:15;288.58;;;25.05;;
10825;SDS011;5466;55.898;14.094;2024-02-15T04:02:20;256.85;;;26.17;;
10825;SDS011;5466;55.898;14.094;2024-02-15T04:04:23;156.60;;;18.90;;
10825;SDS011;5466;55.898;14.094;2024-02-15T04:06:24;238.07;;;20.80;;
10825;SDS011;5466;55.898;14.094;2024-02-15T04:08:25;221.80;;;19.55;;
10825;SDS011;5466;55.898;14.094;2024-02-15T04:10:25;257.50;;;21.50;;
10825;SDS011;5466;55.898;14.094;2024-02-15T04:12:26;285.27;;;23.80;;
10825;SDS011;5466;55.898;14.094;2024-02-15T04:14:27;254.48;;;21.73;;
10825;SDS011;5466;55.898;14.094;2024-02-15T04:16:28;280.27;;;22.67;;
10825;SDS011;5466;55.898;14.094;2024-02-15T04:18:30;315.00;;;25.48;;
10825;SDS011;5466;55.898;14.094;2024-02-15T04:20:32;185.38;;;19.17;;
10825;SDS011;5466;55.898;14.094;2024-02-15T04:22:33;283.40;;;24.70;;
10825;SDS011;5466;55.898;14.094;2024-02-15T04:24:36;310.98;;;23.10;;
10825;SDS011;5466;55.898;14.094;2024-02-15T04:26:40;281.63;;;24.52;;
10825;SDS011;5466;55.898;14.094;2024-02-15T04:28:41;237.10;;;22.73;;
10825;SDS011;5466;55.898;14.094;2024-02-15T04:30:41;318.35;;;22.83;;
10825;SDS011;5466;55.898;14.094;2024-02-15T04:32:42;304.17;;;23.65;;
10825;SDS011;5466;55.898;14.094;2024-02-15T04:34:43;261.60;;;21.63;;
10825;SDS011;5466;55.898;14.094;2024-02-15T04:36:46;174.35;;;20.50;;
10825;SDS011;5466;55.898;14.094;2024-02-15T04:38:51;217.27;;;22.38;;
10825;SDS011;5466;55.898;14.094;2024-02-15T04:40:52;246.88;;;23.65;;
10825;SDS011;5466;55.898;14.094;2024-02-15T04:42:53;261.27;;;23.08;;
10825;SDS011;5466;55.898;14.094;2024-02-15T04:44:54;187.43;;;18.63;;
10825;SDS011;5466;55.898;14.094;2024-02-15T04:46:55;245.15;;;23.58;;
10825;SDS011;5466;55.898;14.094;2024-02-15T04:48:56;223.20;;;20.30;;
10825;SDS011;5466;55.898;14.094;2024-02-15T04:50:58;205.30;;;21.48;;
10825;SDS011;5466;55.898;14.094;2024-02-15T04:52:59;260.75;;;21.50;;
10825;SDS011;5466;55.898;14.094;2024-02-15T04:55:00;211.15;;;20.15;;
10825;SDS011;5466;55.898;14.094;2024-02-15T04:57:01;224.35;;;20.13;;
10825;SDS011;5466;55.898;14.094;2024-02-15T04:59:02;258.75;;;21.02;;
10825;SDS011;5466;55.898;14.094;2024-02-15T05:01:03;231.95;;;22.63;;
10825;SDS011;5466;55.898;14.094;2024-02-15T05:03:04;198.20;;;22.75;;
10825;SDS011;5466;55.898;14.094;2024-02-15T05:05:07;230.05;;;20.13;;
10825;SDS011;5466;55.898;14.094;2024-02-15T05:07:09;210.90;;;19.88;;
10825;SDS011;5466;55.898;14.094;2024-02-15T05:09:10;253.35;;;19.80;;
10825;SDS011;5466;55.898;14.094;2024-02-15T05:11:11;257.88;;;22.27;;
10825;SDS011;5466;55.898;14.094;2024-02-15T05:13:17;278.20;;;22.80;;
10825;SDS011;5466;55.898;14.094;2024-02-15T05:15:18;205.85;;;20.83;;
10825;SDS011;5466;55.898;14.094;2024-02-15T05:17:22;270.73;;;23.00;;
10825;SDS011;5466;55.898;14.094;2024-02-15T05:19:23;275.13;;;23.75;;
10825;SDS011;5466;55.898;14.094;2024-02-15T05:21:24;191.05;;;19.75;;
10825;SDS011;5466;55.898;14.094;2024-02-15T05:23:24;236.32;;;22.58;;
10825;SDS011;5466;55.898;14.094;2024-02-15T05:25:25;188.98;;;19.05;;
10825;SDS011;5466;55.898;14.094;2024-02-15T05:27:26;251.25;;;22.10;;
10825;SDS011;5466;55.898;14.094;2024-02-15T05:29:27;203.43;;;22.13;;
10825;SDS011;5466;55.898;14.094;2024-02-15T05:31:28;277.27;;;21.45;;
10825;SDS011;5466;55.898;14.094;2024-02-15T05:33:29;222.10;;;24.52;;
10825;SDS011;5466;55.898;14.094;2024-02-15T05:35:32;248.73;;;25.02;;
10825;SDS011;5466;55.898;14.094;2024-02-15T05:37:34;222.20;;;20.10;;
10825;SDS011;5466;55.898;14.094;2024-02-15T05:39:35;244.07;;;22.05;;
10825;SDS011;5466;55.898;14.094;2024-02-15T05:41:35;297.60;;;23.45;;
10825;SDS011;5466;55.898;14.094;2024-02-15T05:43:36;302.45;;;23.67;;
10825;SDS011;5466;55.898;14.094;2024-02-15T05:45:38;280.90;;;23.48;;
10825;SDS011;5466;55.898;14.094;2024-02-15T05:47:39;264.98;;;26.10;;
10825;SDS011;5466;55.898;14.094;2024-02-15T05:49:40;251.07;;;25.20;;
10825;SDS011;5466;55.898;14.094;2024-02-15T05:51:41;258.90;;;26.15;;
10825;SDS011;5466;55.898;14.094;2024-02-15T05:53:42;220.73;;;27.07;;
10825;SDS011;5466;55.898;14.094;2024-02-15T05:55:43;298.77;;;25.15;;
10825;SDS011;5466;55.898;14.094;2024-02-15T05:57:44;286.15;;;23.42;;
10825;SDS011;5466;55.898;14.094;2024-02-15T05:59:45;241.23;;;25.13;;
10825;SDS011;5466;55.898;14.094;2024-02-15T06:01:46;302.42;;;31.23;;
10825;SDS011;5466;55.898;14.094;2024-02-15T06:03:48;346.70;;;28.58;;
10825;SDS011;5466;55.898;14.094;2024-02-15T06:05:49;252.30;;;21.98;;
10825;SDS011;5466;55.898;14.094;2024-02-15T06:07:49;284.98;;;25.77;;
10825;SDS011;5466;55.898;14.094;2024-02-15T06:09:50;200.48;;;20.17;;
10825;SDS011;5466;55.898;14.094;2024-02-15T06:11:51;228.18;;;25.00;;
10825;SDS011;5466;55.898;14.094;2024-02-15T06:13:55;272.95;;;22.40;;
10825;SDS011;5466;55.898;14.094;2024-02-15T06:15:56;251.13;;;23.38;;
10825;SDS011;5466;55.898;14.094;2024-02-15T06:17:56;227.52;;;22.42;;
10825;SDS011;5466;55.898;14.094;2024-02-15T06:19:57;251.75;;;26.92;;
10825;SDS011;5466;55.898;14.094;2024-02-15T06:21:58;213.35;;;21.02;;
10825;SDS011;5466;55.898;14.094;2024-02-15T06:23:58;243.85;;;25.25;;
10825;SDS011;5466;55.898;14.094;2024-02-15T06:25:59;229.18;;;26.20;;
10825;SDS011;5466;55.898;14.094;2024-02-15T06:28:01;211.10;;;24.90;;
10825;SDS011;5466;55.898;14.094;2024-02-15T06:30:13;191.38;;;20.50;;
10825;SDS011;5466;55.898;14.094;2024-02-15T06:32:33;251.88;;;21.30;;
10825;SDS011;5466;55.898;14.094;2024-02-15T06:34:52;190.80;;;19.13;;
10825;SDS011;5466;55.898;14.094;2024-02-15T06:37:11;243.25;;;23.52;;
10825;SDS011;5466;55.898;14.094;2024-02-15T06:39:57;183.93;;;19.08;;
10825;SDS011;5466;55.898;14.094;2024-02-15T06:41:57;206.65;;;19.45;;
10825;SDS011;5466;55.898;14.094;2024-02-15T06:43:58;165.85;;;18.90;;
10825;SDS011;5466;55.898;14.094;2024-02-15T06:45:58;161.40;;;19.73;;
10825;SDS011;5466;55.898;14.094;2024-02-15T06:47:59;223.40;;;22.00;;
10825;SDS011;5466;55.898;14.094;2024-02-15T06:50:00;197.82;;;21.13;;
10825;SDS011;5466;55.898;14.094;2024-02-15T06:52:00;258.17;;;21.35;;
10825;SDS011;5466;55.898;14.094;2024-02-15T06:54:02;207.95;;;21.75;;
10825;SDS011;5466;55.898;14.094;2024-02-15T06:56:03;273.15;;;28.65;;
10825;SDS011;5466;55.898;14.094;2024-02-15T06:58:04;206.98;;;24.65;;
10825;SDS011;5466;55.898;14.094;2024-02-15T07:00:06;280.13;;;31.27;;
10825;SDS011;5466;55.898;14.094;2024-02-15T07:02:08;409.38;;;47.17;;
10825;SDS011;5466;55.898;14.094;2024-02-15T07:04:09;327.70;;;31.52;;
10825;SDS011;5466;55.898;14.094;2024-02-15T07:06:10;306.42;;;36.10;;
10825;SDS011;5466;55.898;14.094;2024-02-15T07:08:14;240.20;;;32.35;;
10825;SDS011;5466;55.898;14.094;2024-02-15T07:10:15;303.90;;;42.47;;
10825;SDS011;5466;55.898;14.094;2024-02-15T07:12:18;387.48;;;45.88;;
10825;SDS011;5466;55.898;14.094;2024-02-15T07:14:21;449.60;;;56.97;;
10825;SDS011;5466;55.898;14.094;2024-02-15T07:16:21;329.90;;;48.42;;
10825;SDS011;5466;55.898;14.094;2024-02-15T07:18:23;260.58;;;34.33;;
10825;SDS011;5466;55.898;14.094;2024-02-15T07:20:25;301.95;;;36.67;;
10825;SDS011;5466;55.898;14.094;2024-02-15T07:22:26;235.57;;;30.98;;
10825;SDS011;5466;55.898;14.094;2024-02-15T07:24:26;192.95;;;21.08;;
10825;SDS011;5466;55.898;14.094;2024-02-15T07:26:27;221.25;;;21.42;;
10825;SDS011;5466;55.898;14.094;2024-02-15T07:28:28;180.43;;;22.38;;
10825;SDS011;5466;55.898;14.094;2024-02-15T07:30:30;219.77;;;23.75;;
10825;SDS011;5466;55.898;14.094;2024-02-15T07:32:31;231.90;;;22.27;;
10825;SDS011;5466;55.898;14.094;2024-02-15T07:34:35;254.80;;;21.67;;
10825;SDS011;5466;55.898;14.094;2024-02-15T07:36:36;230.18;;;23.30;;
10825;SDS011;5466;55.898;14.094;2024-02-15T07:38:39;208.27;;;21.20;;
10825;SDS011;5466;55.898;14.094;2024-02-15T07:40:40;188.68;;;22.45;;
10825;SDS011;5466;55.898;14.094;2024-02-15T07:42:41;215.27;;;32.03;;
10825;SDS011;5466;55.898;14.094;2024-02-15T07:44:41;226.80;;;21.02;;
10825;SDS011;5466;55.898;14.094;2024-02-15T07:46:43;191.38;;;25.00;;
10825;SDS011;5466;55.898;14.094;2024-02-15T07:48:44;176.25;;;18.80;;
10825;SDS011;5466;55.898;14.094;2024-02-15T07:50:48;256.67;;;22.70;;
10825;SDS011;5466;55.898;14.094;2024-02-15T07:52:48;157.00;;;19.23;;
10825;SDS011;5466;55.898;14.094;2024-02-15T07:54:49;123.10;;;17.50;;
10825;SDS011;5466;55.898;14.094;2024-02-15T07:56:52;151.75;;;18.17;;
10825;SDS011;5466;55.898;14.094;2024-02-15T07:58:53;116.97;;;16.42;;
10825;SDS011;5466;55.898;14.094;2024-02-15T08:00:54;136.45;;;18.23;;
10825;SDS011;5466;55.898;14.094;2024-02-15T08:02:56;107.07;;;16.85;;
10825;SDS011;5466;55.898;14.094;2024-02-15T08:05:00;95.82;;;16.48;;
10825;SDS011;5466;55.898;14.094;2024-02-15T08:07:04;107.57;;;15.93;;
10825;SDS011;5466;55.898;14.094;2024-02-15T08:09:05;68.45;;;14.50;;
10825;SDS011;5466;55.898;14.094;2024-02-15T08:11:06;71.05;;;15.45;;
10825;SDS011;5466;55.898;14.094;2024-02-15T08:13:14;85.65;;;16.17;;
10825;SDS011;5466;55.898;14.094;2024-02-15T08:15:15;69.70;;;14.05;;
10825;SDS011;5466;55.898;14.094;2024-02-15T08:17:16;55.20;;;13.73;;
10825;SDS011;5466;55.898;14.094;2024-02-15T08:19:16;53.83;;;14.50;;
10825;SDS011;5466;55.898;14.094;2024-02-15T08:21:17;65.47;;;13.80;;
10825;SDS011;5466;55.898;14.094;2024-02-15T08:23:18;78.35;;;15.18;;
10825;SDS011;5466;55.898;14.094;2024-02-15T08:25:19;63.92;;;14.85;;
10825;SDS011;5466;55.898;14.094;2024-02-15T08:27:19;43.88;;;12.52;;
10825;SDS011;5466;55.898;14.094;2024-02-15T08:29:20;46.30;;;13.77;;
10825;SDS011;5466;55.898;14.094;2024-02-15T08:31:21;85.15;;;25.42;;
10825;SDS011;5466;55.898;14.094;2024-02-15T08:33:21;32.60;;;12.95;;
10825;SDS011;5466;55.898;14.094;2024-02-15T08:35:23;40.80;;;13.38;;
10825;SDS011;5466;55.898;14.094;2024-02-15T08:37:24;46.30;;;13.00;;
10825;SDS011;5466;55.898;14.094;2024-02-15T08:39:24;41.70;;;13.15;;
10825;SDS011;5466;55.898;14.094;2024-02-15T08:41:25;39.03;;;12.57;;
10825;SDS011;5466;55.898;14.094;2024-02-15T08:43:26;43.88;;;12.57;;
10825;SDS011;5466;55.898;14.094;2024-02-15T08:45:27;32.90;;;11.80;;
10825;SDS011;5466;55.898;14.094;2024-02-15T08:47:28;40.72;;;12.38;;
10825;SDS011;5466;55.898;14.094;2024-02-15T08:49:29;35.60;;;12.55;;
10825;SDS011;5466;55.898;14.094;2024-02-15T08:51:30;32.33;;;11.82;;
10825;SDS011;5466;55.898;14.094;2024-02-15T08:53:32;37.55;;;12.45;;
10825;SDS011;5466;55.898;14.094;2024-02-15T08:55:33;32.55;;;11.93;;
10825;SDS011;5466;55.898;14.094;2024-02-15T08:57:35;24.98;;;12.05;;
10825;SDS011;5466;55.898;14.094;2024-02-15T08:59:38;24.13;;;10.85;;
10825;SDS011;5466;55.898;14.094;2024-02-15T09:01:39;20.60;;;10.77;;
10825;SDS011;5466;55.898;14.094;2024-02-15T09:03:40;23.67;;;11.85;;
10825;SDS011;5466;55.898;14.094;2024-02-15T09:05:41;18.38;;;10.23;;
10825;SDS011;5466;55.898;14.094;2024-02-15T09:07:41;23.95;;;12.00;;
10825;SDS011;5466;55.898;14.094;2024-02-15T09:09:42;18.17;;;11.13;;
10825;SDS011;5466;55.898;14.094;2024-02-15T09:11:43;20.50;;;10.27;;
10825;SDS011;5466;55.898;14.094;2024-02-15T09:13:44;15.63;;;8.73;;
10825;SDS011;5466;55.898;14.094;2024-02-15T09:15:45;19.90;;;9.38;;
10825;SDS011;5466;55.898;14.094;2024-02-15T09:17:47;19.75;;;10.02;;
10825;SDS011;5466;55.898;14.094;2024-02-15T09:19:48;19.73;;;10.52;;
10825;SDS011;5466;55.898;14.094;2024-02-15T09:21:52;20.25;;;11.18;;
10825;SDS011;5466;55.898;14.094;2024-02-15T09:23:55;19.35;;;10.10;;
10825;SDS011;5466;55.898;14.094;2024-02-15T09:25:56;19.88;;;10.10;;
10825;SDS011;5466;55.898;14.094;2024-02-15T09:27:57;15.30;;;10.15;;
10825;SDS011;5466;55.898;14.094;2024-02-15T09:29:57;20.58;;;11.02;;
10825;SDS011;5466;55.898;14.094;2024-02-15T09:31:58;19.17;;;10.45;;
10825;SDS011;5466;55.898;14.094;2024-02-15T09:34:02;17.83;;;9.57;;
10825;SDS011;5466;55.898;14.094;2024-02-15T09:36:06;18.58;;;9.80;;
10825;SDS011;5466;55.898;14.094;2024-02-15T09:38:07;19.65;;;10.02;;
10825;SDS011;5466;55.898;14.094;2024-02-15T09:40:09;25.02;;;10.57;;
10825;SDS011;5466;55.898;14.094;2024-02-15T09:42:10;18.00;;;10.98;;
10825;SDS011;5466;55.898;14.094;2024-02-15T09:44:11;18.13;;;9.80;;
10825;SDS011;5466;55.898;14.094;2024-02-15T09:46:13;17.23;;;9.65;;
10825;SDS011;5466;55.898;14.094;2024-02-15T09:48:14;18.58;;;11.32;;
10825;SDS011;5466;55.898;14.094;2024-02-15T09:50:18;19.55;;;10.05;;
10825;SDS011;5466;55.898;14.094;2024-02-15T09:52:18;18.67;;;9.25;;
10825;SDS011;5466;55.898;14.094;2024-02-15T09:54:19;18.00;;;9.43;;
10825;SDS011;5466;55.898;14.094;2024-02-15T09:56:22;18.70;;;9.68;;
10825;SDS011;5466;55.898;14.094;2024-02-15T09:58:26;17.65;;;9.38;;
10825;SDS011;5466;55.898;14.094;2024-02-15T10:00:26;18.65;;;9.35;;
10825;SDS011;5466;55.898;14.094;2024-02-15T10:02:27;20.85;;;10.45;;
10825;SDS011;5466;55.898;14.094;2024-02-15T10:04:28;18.38;;;9.35;;
10825;SDS011;5466;55.898;14.094;2024-02-15T10:06:29;20.10;;;9.77;;
10825;SDS011;5466;55.898;14.094;2024-02-15T10:08:30;24.02;;;10.00;;
10825;SDS011;5466;55.898;14.094;2024-02-15T10:10:30;19.80;;;10.23;;
10825;SDS011;5466;55.898;14.094;2024-02-15T10:12:37;22.13;;;10.85;;
10825;SDS011;5466;55.898;14.094;2024-02-15T10:14:44;21.90;;;11.77;;
10825;SDS011;5466;55.898;14.094;2024-02-15T10:16:49;18.73;;;9.93;;
10825;SDS011;5466;55.898;14.094;2024-02-15T10:18:50;17.52;;;10.75;;
10825;SDS011;5466;55.898;14.094;2024-02-15T10:20:57;21.27;;;10.30;;
10825;SDS011;5466;55.898;14.094;2024-02-15T10:25:11;27.48;;;10.75;;
10825;SDS011;5466;55.898;14.094;2024-02-15T10:27:12;21.83;;;11.00;;
10825;SDS011;5466;55.898;14.094;2024-02-15T10:29:13;25.35;;;10.73;;
10825;SDS011;5466;55.898;14.094;2024-02-15T10:31:15;25.85;;;11.10;;
10825;SDS011;5466;55.898;14.094;2024-02-15T10:33:19;20.95;;;10.52;;
10825;SDS011;5466;55.898;14.094;2024-02-15T10:35:29;27.48;;;12.25;;
10825;SDS011;5466;55.898;14.094;2024-02-15T10:37:30;25.02;;;10.73;;
10825;SDS011;5466;55.898;14.094;2024-02-15T10:39:32;23.30;;;10.82;;
10825;SDS011;5466;55.898;14.094;2024-02-15T10:41:34;26.58;;;10.68;;
10825;SDS011;5466;55.898;14.094;2024-02-15T10:43:36;20.80;;;10.18;;
10825;SDS011;5466;55.898;14.094;2024-02-15T10:45:40;24.92;;;9.88;;
10825;SDS011;5466;55.898;14.094;2024-02-15T10:47:41;23.10;;;9.90;;
10825;SDS011;5466;55.898;14.094;2024-02-15T10:49:43;26.88;;;10.63;;
10825;SDS011;5466;55.898;14.094;2024-02-15T10:51:44;24.15;;;9.95;;
10825;SDS011;5466;55.898;14.094;2024-02-15T10:53:51;25.60;;;9.32;;
10825;SDS011;5466;55.898;14.094;2024-02-15T10:58:19;27.13;;;9.80;;
10825;SDS011;5466;55.898;14.094;2024-02-15T11:00:23;22.90;;;10.02;;
10825;SDS011;5466;55.898;14.094;2024-02-15T11:02:33;21.70;;;9.50;;
10825;SDS011;5466;55.898;14.094;2024-02-15T11:04:36;19.08;;;10.27;;
10825;SDS011;5466;55.898;14.094;2024-02-15T11:06:38;19.58;;;10.05;;
10825;SDS011;5466;55.898;14.094;2024-02-15T11:08:42;23.35;;;10.07;;
10825;SDS011;5466;55.898;14.094;2024-02-15T11:10:44;22.15;;;10.43;;
10825;SDS011;5466;55.898;14.094;2024-02-15T11:12:47;31.15;;;16.15;;
10825;SDS011;5466;55.898;14.094;2024-02-15T11:14:48;27.35;;;12.50;;
10825;SDS011;5466;55.898;14.094;2024-02-15T11:16:51;25.05;;;10.55;;
10825;SDS011;5466;55.898;14.094;2024-02-15T11:18:51;24.52;;;12.20;;
10825;SDS011;5466;55.898;14.094;2024-02-15T11:20:55;21.27;;;10.55;;
10825;SDS011;5466;55.898;14.094;2024-02-15T11:22:59;25.83;;;11.32;;
10825;SDS011;5466;55.898;14.094;2024-02-15T11:25:04;30.15;;;12.68;;
10825;SDS011;5466;55.898;14.094;2024-02-15T11:27:12;23.15;;;11.00;;
10825;SDS011;5466;55.898;14.094;2024-02-15T11:31:55;27.85;;;12.18;;
10825;SDS011;5466;55.898;14.094;2024-02-15T11:33:55;25.05;;;12.60;;
10825;SDS011;5466;55.898;14.094;2024-02-15T11:36:06;26.98;;;12.18;;
10825;SDS011;5466;55.898;14.094;2024-02-15T11:38:26;19.70;;;10.48;;
10825;SDS011;5466;55.898;14.094;2024-02-15T11:40:59;32.38;;;11.07;;
10825;SDS011;5466;55.898;14.094;2024-02-15T11:42:56;23.70;;;9.77;;
10825;SDS011;5466;55.898;14.094;2024-02-15T11:45:05;31.02;;;10.57;;
10825;SDS011;5466;55.898;14.094;2024-02-15T11:47:08;24.58;;;10.90;;
10825;SDS011;5466;55.898;14.094;2024-02-15T11:49:14;18.60;;;10.80;;
10825;SDS011;5466;55.898;14.094;2024-02-15T11:51:34;23.30;;;11.50;;
10825;SDS011;5466;55.898;14.094;2024-02-15T11:53:42;22.42;;;10.07;;
10825;SDS011;5466;55.898;14.094;2024-02-15T11:55:43;19.63;;;9.85;;